Boyd Deep Canyon Reserve, California Weather observations

Data are for 10 minute period ending at time listed.
 Day   Time   Solar   Ave.   Ave.  Ave.  Vector  Max.   Baro.   Total    
  of    of     Rad.   Air    Rel.  Wind   Wind   Wind  Press.  Precip.   
Year   Day            Temp.  Hum.  Speed  Dir.   Gust                    
2014   (PST)  Kw/m2    F      %     mph   deg.    mph    mb.     in.     
-------------------------------------------------------------------------
 297   14:40   0.42   89.6    19    2.9   113     7.5   978.4    0.00 
 297   14:50   0.39   89.8    19    4.7    59     8.4   978.3    0.00 
 297   15:00   0.36   89.1    20    4.9    83    10.1   978.2    0.00 
 297   15:10   0.33   89.8    19    2.7    98     6.7   978.1    0.00 
 297   15:20   0.29   89.3    20    3.3    67     9.1   978.0    0.00 
 297   15:30   0.26   89.7    19    3.0   125     5.5   978.0    0.00 
 297   15:40   0.23   88.7    20    2.7   104     5.0   977.8    0.00 
 297   15:50   0.09   88.2    20    3.6   100     5.8   977.7    0.00 
 297   16:00   0.03   87.0    21    4.1    86     6.6   977.7    0.00 
 297   16:10   0.03   86.6    21    3.8    87     5.7   977.5    0.00 
 297   16:20   0.03   86.3    21    4.2    95     6.9   977.4    0.00 
 297   16:30   0.02   86.2    21    3.2    96     4.7   977.4    0.00 
 297   16:40   0.01   85.9    22    3.9    87     6.5   977.3    0.00 
 297   16:50   0.01   85.7    22    4.4    95     6.9   977.4    0.00 
 297   17:00   0.01   85.6    22    4.1    99     6.8   977.5    0.00 
 297   17:10   0.00   85.4    22    2.6   120     5.9   977.5    0.00 
 297   17:20   0.00   84.5    22    2.5   180     3.6   977.5    0.00 
 297   17:30   0.00   84.3    23    1.8   167     3.1   977.6    0.00 
 297   17:40   0.00   83.7    23    2.6   170     4.4   977.7    0.00 
 297   17:50   0.00   84.3    23    4.2   180     7.3   977.8    0.00 
 297   18:00   0.00   85.1    20    5.7   181    11.5   978.0    0.00 
 297   18:10   0.00   85.1    18    6.3   175    10.5   978.1    0.00 
 297   18:20   0.00   84.9    18    8.1   177    13.4   978.2    0.00 
 297   18:30   0.00   84.7    18    9.8   177    13.2   978.3    0.00 
 297   18:40   0.00   84.7    18    9.6   179    13.8   978.3    0.00 
 297   18:50   0.00   84.5    18    7.4   194    12.2   978.3    0.00 
 297   19:00   0.00   83.9    19    6.7   228    10.8   978.3    0.00 
 297   19:10   0.00   83.7    19    5.6   203     8.2   978.4    0.00 
 297   19:20   0.00   83.6    19    5.9   205     9.5   978.5    0.00 
 297   19:30   0.00   83.5    19    8.3   185    12.3   978.6    0.00 
 297   19:40   0.00   83.5    19    9.8   177    12.6   978.7    0.00 
 297   19:50   0.00   83.1    20    7.8   184    12.3   978.8    0.00 
 297   20:00   0.00   82.6    20    6.6   204    10.7   978.9    0.00 
 297   20:10   0.00   82.2    20    7.3   205    11.3   979.0    0.00 
 297   20:20   0.00   82.1    20    7.1   192    11.0   979.1    0.00 
 297   20:30   0.00   81.9    20    6.4   197    10.8   979.3    0.00 
 297   20:40   0.00   81.4    21    6.8   218    12.2   979.4    0.00 
 297   20:50   0.00   81.4    21    6.5   193    10.7   979.5    0.00 
 297   21:00   0.00   81.6    21    7.4   187    12.3   979.6    0.00 
 297   21:10   0.00   81.9    21    9.2   183    12.5   979.7    0.00 
 297   21:20   0.00   81.9    21    7.4   185    11.5   979.7    0.00 
 297   21:30   0.00   82.0    22    6.3   175    12.1   979.7    0.00 
 297   21:40   0.00   81.8    22    8.4   186    12.1   979.7    0.00 
 297   21:50   0.00   80.2    23    7.4   194    11.8   979.7    0.00 
 297   22:00   0.00   80.5    23    9.1   197    15.1   979.6    0.00 
 297   22:10   0.00   81.1    23    7.9   202    11.8   979.6    0.00 
 297   22:20   0.00   81.1    23    8.0   192    14.0   979.6    0.00 
 297   22:30   0.00   81.2    23   10.1   180    19.2   979.6    0.00 
 297   22:40   0.00   81.5    23    9.8   184    17.5   979.6    0.00 
 297   22:50   0.00   81.3    23    9.6   190    15.1   979.6    0.00 
 297   23:00   0.00   81.5    23   11.5   176    19.6   979.5    0.00 
 297   23:10   0.00   81.6    23   13.0   175    19.1   979.5    0.00 
 297   23:20   0.00   81.3    23    8.3   195    15.8   979.6    0.00 
 297   23:30   0.00   80.3    23    4.0   204     6.2   979.6    0.00 
 297   23:40   0.00   78.9    24    4.5   182    16.8   979.7    0.00 
 297   23:50   0.00   81.2    22   13.2   223    20.0   979.6    0.00 
 298    0:00   0.00   81.3    22    9.8   228    15.6   979.6    0.00 
 298    0:10   0.00   81.2    23   10.6   227    15.4   979.7    0.00 
 298    0:20   0.00   81.2    23   12.7   226    18.0   979.7    0.00 
 298    0:30   0.00   81.1    23   10.4   209    18.5   979.7    0.00 
 298    0:40   0.00   80.8    24   11.3   216    17.6   979.7    0.00 
 298    0:50   0.00   80.8    24   13.6   212    19.9   979.7    0.00 
 298    1:00   0.00   80.7    25   10.1   222    18.9   979.8    0.00 
 298    1:10   0.00   80.5    26    5.7   184    10.4   979.7    0.00 
 298    1:20   0.00   80.5    26    9.1   207    17.7   979.7    0.00 
 298    1:30   0.00   80.3    27    8.1   215    22.8   979.6    0.00 
 298    1:40   0.00   80.2    27    9.3   217    16.3   979.6    0.00 
 298    1:50   0.00   80.0    27   10.9   218    21.5   979.5    0.00 
 298    2:00   0.00   79.9    27   11.3   211    19.3   979.5    0.00 
 298    2:10   0.00   79.9    28    7.8   191    15.9   979.4    0.00 
 298    2:20   0.00   79.9    28    9.5   189    15.9   979.3    0.00 
 298    2:30   0.00   79.9    28    9.4   188    16.6   979.1    0.00 
 298    2:40   0.00   79.9    28    9.4   204    14.3   979.0    0.00 
 298    2:50   0.00   79.9    28    9.9   212    15.0   978.9    0.00 
 298    3:00   0.00   79.9    28   10.6   216    17.4   978.9    0.00 
 298    3:10   0.00   80.1    27   11.5   202    20.0   979.0    0.00 
 298    3:20   0.00   80.0    27   12.0   204    15.9   979.0    0.00 
 298    3:30   0.00   80.6    26    9.3   192    15.5   979.1    0.00 
 298    3:40   0.00   80.5    26    9.9   208    14.3   979.1    0.00 
 298    3:50   0.00   80.1    26    8.7   207    13.8   979.1    0.00 
 298    4:00   0.00   80.6    25   12.9   180    19.2   979.0    0.00 
 298    4:10   0.00   80.7    25   12.4   193    20.3   979.1    0.00 
 298    4:20   0.00   80.5    26   10.9   204    16.0   979.1    0.00 
 298    4:30   0.00   80.3    26   11.0   204    15.7   979.2    0.00 
 298    4:40   0.00   79.9    26   12.7   215    18.2   979.2    0.00 
 298    4:50   0.00   79.3    27   10.5   217    15.1   979.2    0.00 
 298    5:00   0.00   78.8    27    8.6   204    13.7   979.3    0.00 
 298    5:10   0.00   79.4    27    9.7   204    14.9   979.3    0.00 
 298    5:20   0.00   79.6    27   14.5   220    19.5   979.3    0.00 
 298    5:30   0.00   80.1    27   15.8   222    22.0   979.2    0.00 
 298    5:40   0.00   80.6    27   15.7   216    22.1   979.0    0.00 
 298    5:50   0.00   80.8    27   11.5   209    18.9   979.0    0.00 
 298    6:00   0.00   80.9    27    6.8   183    11.4   979.1    0.00 
 298    6:10   0.00   80.0    28    4.4   202     6.9   979.3    0.00 
 298    6:20   0.01   79.0    29    4.2   180     6.3   979.4    0.00 
 298    6:30   0.02   79.4    28    2.8   194     5.6   979.5    0.00 
 298    6:40   0.04   78.0    28    2.0    80     4.5   979.7    0.00 
 298    6:50   0.06   78.6    27    0.8     9     3.4   979.8    0.00 
 298    7:00   0.14   79.7    26    1.1    23     2.3   980.0    0.00 
 298    7:10   0.16   81.6    24    1.5    22     3.0   980.1    0.00 
 298    7:20   0.10   80.9    25    0.5    42     2.4   980.1    0.00 
 298    7:30   0.08   79.8    26    0.9   157     1.8   980.3    0.00 
 298    7:40   0.09   78.7    27    0.5   130     1.5   980.4    0.00 
 298    7:50   0.15   79.2    27    0.2   350     1.2   980.4    0.00 
 298    8:00   0.14   80.6    26    0.7     7     3.5   980.6    0.00 
 298    8:10   0.09   80.3    26    2.7   342     4.5   980.6    0.00 
 298    8:20   0.12   80.5    25    1.0   180     3.1   980.7    0.00 
 298    8:30   0.17   80.9    25    1.1   180     2.0   980.8    0.00 
 298    8:40   0.26   81.3    24    2.2   217     3.7   980.7    0.00 
 298    8:50   0.46   82.6    24    3.2   181     4.8   980.6    0.00 
 298    9:00   0.17   83.0    24    2.2   259     4.5   980.6    0.00 
 298    9:10   0.14   82.8    24    2.7   218     5.3   980.5    0.00 
 298    9:20   0.18   83.0    24    1.3   160     3.8   980.5    0.00 
 298    9:30   0.19   83.5    24    2.5     6     5.2   980.5    0.00 
 298    9:40   0.17   83.2    24    4.3    48     8.5   980.5    0.00 
 298    9:50   0.19   83.6    24    3.3    73     5.1   980.5    0.00 
 298   10:00   0.22   84.1    24    3.3    55     5.3   980.4    0.00 
 298   10:10   0.43   84.8    23    2.6    92     5.0   980.3    0.00 
 298   10:20   0.46   85.3    23    5.8    73    11.0   980.3    0.00 
 298   10:30   0.57   85.2    23    5.9    80     9.3   980.3    0.00 
 298   10:40   0.73   86.2    22    4.4    71     7.7   980.2    0.00 
 298   10:50   0.67   87.0    22    5.1    63     8.3   980.1    0.00 
 298   11:00   0.71   87.3    22    4.6    80     7.2   980.1    0.00 
 298   11:10   0.81   87.2    22    5.1    81    10.7   980.0    0.00 
 298   11:20   0.69   87.9    22    5.0    67    10.0   979.9    0.00 
 298   11:30   0.71   87.7    22    5.4    64     9.3   979.7    0.00 
 298   11:40   0.82   87.8    22    5.1    69     8.9   979.7    0.00 
 298   11:50   0.72   88.3    22    5.0    61     9.3   979.6    0.00 
 298   12:00   0.75   88.4    22    6.2    51    10.8   979.4    0.00 
 298   12:10   0.70   88.7    22    4.9    60     9.1   979.3    0.00 
 298   12:20   0.72   88.8    22    4.7    52     9.6   979.3    0.00 
 298   12:30   0.72   88.5    22    3.6    53     7.7   979.2    0.00 
 298   12:40   0.67   88.5    22    5.1    61     9.1   979.2    0.00 
 298   12:50   0.57   89.2    21    5.2    47     8.8   979.0    0.00 
 298   13:00   0.69   88.8    22    6.5    59    11.1   978.9    0.00 
 298   13:10   0.66   89.2    21    5.3    62    12.9   978.7    0.00 
 298   13:20   0.56   89.3    21    4.7    42     8.8   978.7    0.00 
 298   13:30   0.60   89.7    21    3.8    68     9.1   978.6    0.00 
 298   13:40   0.60   89.2    21    3.8    81     9.0   978.5    0.00 
 298   13:50   0.58   89.8    21    4.7    60    12.6   978.5    0.00 
 298   14:00   0.53   90.2    20    4.4    36     8.2   978.4    0.00 
 298   14:10   0.52   89.4    21    4.0    77     9.8   978.4    0.00 
 298   14:20   0.49   90.1    21    2.8   118     7.1   978.3    0.00 
 298   14:30   0.46   89.9    21    3.9    81     8.3   978.3    0.00 

Return to Boyd Deep Canyon Reserve graphs page.


Western Regional Climate Center,wrcc@dri.edu